Aérodrome :
LOGIN :

S'inscrire | Disclaimer

   EN    FR    IT 

 










Légende :    VFR   VFR Marginal   IFR   IFR Intensif   IFR Très Intensif
Visi : 
Plafond : 
>= 8 km
>= 3000ft
5 à 8 km
1000 à 3000 ft
1500m à 5 km
500 à 1000 ft
800 à 1500m
200 à 500 ft
< 800m
< 200 ft
Symboles :   Orages  Brouillard  Fortes neiges  Fortes précipitations  Vent > 20 kt
SIGMETs :   Divers  Orages  Givrage  Turbulence  Onde Orograph.  Cendres Volcan.






- Altitude de l'aérodrome : 341 ft


EPMO - Modlin

DERNIER METAR :
  • 222000Z 11012KT 9999 BKN015 01/M02 Q1021

METARs EXPIRÉS :
  • 221930Z 11012KT 9999 BKN014 01/M02 Q1021
  • 221900Z 12012KT 9999 BKN013 01/M02 Q1021
  • 221830Z 12013KT 9999 BKN013 01/M02 Q1021
  • 221800Z 12011KT 090V150 9999 BKN012 01/M02 Q1021
  • 221730Z 13011KT 100V160 9999 BKN012 01/M01 Q1021

TAF TAF EPMO
Valide du 22 à 18h jusqu'au 23 à 18h UTC


221730Z 2218/2318 13012KT 9999 BKN010
PROB40
TEMPO 2307/2314 13015G25KT SCT017



MET'MAP, la Météo Aéronautique d'un coup d'oeil ! - Copyright ORBIFLY Décembre 2007 - Disclaimer

ORBIFLY MET'MAP TEAM :

Programmation & Développement : Alexandra Zaïnal
Conception & Développement : Baudouin d'Aumeries
Co-Programmation & Développement : Marc-Olivier Méhu
Soutien technique & logistique : Manuel Goepfert

Contact : metmap@orbifly.com




SOURCES & CREDITS :

   NOAA